| time (UTC) | temp F | wind direction | speed MPH | gust MPH | rain 1hr in | rain 24hr in | rain mn in | humidity % | barometer mb |
| 20260509161005 | 66 | 222 | 3.0 | 9.0 | 0.00 | 0.10 | 0.10 | 75 | 1007.4 |
| 20260509160505 | 66 | 247 | 4.0 | 10.0 | 0.00 | 0.10 | 0.10 | 74 | 1007.5 |
| 20260509160005 | 66 | 243 | 7.0 | 10.0 | 0.00 | 0.10 | 0.10 | 74 | 1007.4 |
| 20260509155505 | 65 | 237 | 5.0 | 9.0 | 0.00 | 0.10 | 0.10 | 75 | 1007.6 |
| 20260509155005 | 65 | 211 | 5.0 | 10.0 | 0.00 | 0.10 | 0.10 | 77 | 1007.6 |
| 20260509154505 | 65 | 227 | 4.0 | 9.0 | 0.00 | 0.10 | 0.10 | 76 | 1007.4 |
| 20260509153505 | 65 | 198 | 3.0 | 7.0 | 0.00 | 0.10 | 0.10 | 79 | 1007.4 |
| 20260509153005 | 64 | 230 | 5.0 | 12.0 | 0.00 | 0.10 | 0.10 | 77 | 1007.5 |
| 20260509152504 | 65 | 221 | 7.0 | 12.0 | 0.00 | 0.10 | 0.10 | 77 | 1007.4 |
| 20260509152005 | 65 | 232 | 5.0 | 8.0 | 0.00 | 0.10 | 0.10 | 78 | 1007.5 |
| 20260509151005 | 65 | 201 | 6.0 | 12.0 | 0.00 | 0.10 | 0.10 | 77 | 1007.4 |
| 20260509150505 | 65 | 226 | 5.0 | 9.0 | 0.00 | 0.10 | 0.10 | 77 | 1007.4 |
| 20260509150005 | 65 | 276 | 6.0 | 10.0 | 0.00 | 0.10 | 0.10 | 78 | 1007.3 |
| 20260509145504 | 65 | 231 | 5.0 | 12.0 | 0.00 | 0.10 | 0.10 | 78 | 1007.3 |
| 20260509145005 | 65 | 248 | 8.0 | 14.0 | 0.00 | 0.10 | 0.10 | 78 | 1007.2 |
| 20260509144504 | 64 | 197 | 7.0 | 13.0 | 0.00 | 0.10 | 0.10 | 78 | 1007.1 |
| 20260509144006 | 64 | 189 | 5.0 | 9.0 | 0.00 | 0.10 | 0.10 | 81 | 1007.1 |
| 20260509143505 | 64 | 208 | 5.0 | 12.0 | 0.00 | 0.10 | 0.10 | 81 | 1007.1 |
| 20260509143004 | 64 | 212 | 4.0 | 9.0 | 0.00 | 0.10 | 0.10 | 83 | 1007.0 |
| 20260509142505 | 63 | 193 | 3.0 | 10.0 | 0.00 | 0.10 | 0.10 | 84 | 1007.1 |
| 20260509142005 | 63 | 232 | 5.0 | 10.0 | 0.00 | 0.10 | 0.10 | 84 | 1007.2 |
| 20260509141505 | 63 | 205 | 5.0 | 8.0 | 0.00 | 0.10 | 0.10 | 84 | 1007.3 |
| 20260509141005 | 63 | 208 | 3.0 | 5.0 | 0.00 | 0.10 | 0.10 | 85 | 1007.2 |
| 20260509135005 | 62 | 193 | 3.0 | 8.0 | 0.00 | 0.10 | 0.10 | 87 | 1006.9 |
| 20260509134504 | 62 | 212 | 3.0 | 6.0 | 0.00 | 0.10 | 0.10 | 88 | 1006.8 |
| 20260509134005 | 61 | 192 | 2.0 | 8.0 | 0.00 | 0.10 | 0.10 | 90 | 1006.8 |
| 20260509133506 | 61 | 190 | 3.0 | 9.0 | 0.00 | 0.10 | 0.10 | 90 | 1006.9 |
| 20260509133005 | 61 | 211 | 2.0 | 6.0 | 0.00 | 0.10 | 0.10 | 91 | 1006.8 |
| 20260509132505 | 60 | 193 | 3.0 | 6.0 | 0.00 | 0.10 | 0.10 | 92 | 1006.8 |
| 20260509132005 | 60 | 184 | 3.0 | 6.0 | 0.00 | 0.10 | 0.10 | 92 | 1006.8 |
| 20260509131505 | 60 | 185 | 3.0 | 6.0 | 0.00 | 0.10 | 0.10 | 93 | 1006.8 |
| 20260509130505 | 59 | 199 | 2.0 | 3.0 | 0.00 | 0.10 | 0.10 | 95 | 1006.7 |
| 20260509130005 | 59 | 196 | 2.0 | 5.0 | 0.00 | 0.10 | 0.10 | 95 | 1006.7 |
| 20260509125005 | 58 | 196 | 2.0 | 7.0 | 0.00 | 0.10 | 0.10 | 96 | 1006.8 |
| 20260509124504 | 58 | 196 | 2.0 | 6.0 | 0.00 | 0.10 | 0.10 | 96 | 1006.7 |
| 20260509123505 | 57 | 215 | 3.0 | 7.0 | 0.00 | 0.10 | 0.10 | 96 | 1006.8 |
| 20260509123005 | 57 | 212 | 3.0 | 6.0 | 0.00 | 0.10 | 0.10 | 96 | 1006.8 |
| 20260509122005 | 57 | 196 | 3.0 | 6.0 | 0.00 | 0.10 | 0.10 | 96 | 1006.7 |
| 20260509121504 | 57 | 210 | 2.0 | 3.0 | 0.00 | 0.10 | 0.10 | 96 | 1006.8 |
| 20260509121004 | 57 | 202 | 2.0 | 3.0 | 0.00 | 0.10 | 0.10 | 96 | 1006.8 |
| 20260509120505 | 57 | 201 | 2.0 | 3.0 | 0.00 | 0.10 | 0.10 | 96 | 1006.8 |
| 20260509120005 | 57 | 198 | 2.0 | 3.0 | 0.00 | 0.10 | 0.10 | 96 | 1006.8 |
| 20260509115506 | 56 | 194 | 2.0 | 3.0 | 0.00 | 0.10 | 0.10 | 96 | 1006.7 |
| 20260509115004 | 56 | 173 | 1.0 | 3.0 | 0.00 | 0.10 | 0.10 | 96 | 1006.7 |
| 20260509114505 | 56 | 173 | 1.0 | 3.0 | 0.00 | 0.10 | 0.10 | 96 | 1006.5 |
| 20260509113505 | 56 | 171 | 1.0 | 2.0 | 0.00 | 0.10 | 0.10 | 96 | 1006.1 |
| 20260509113005 | 56 | 171 | 0.0 | 1.0 | 0.00 | 0.10 | 0.10 | 96 | 1006.0 |
| 20260509112504 | 56 | 171 | 0.0 | 1.0 | 0.00 | 0.10 | 0.10 | 96 | 1006.0 |
| 20260509112004 | 56 | 171 | 1.0 | 2.0 | 0.00 | 0.10 | 0.10 | 96 | 1006.0 |
| 20260509111505 | 56 | 171 | 0.0 | 2.0 | 0.00 | 0.10 | 0.10 | 96 | 1005.9 |
| 20260509110505 | 56 | 171 | 1.0 | 3.0 | 0.00 | 0.10 | 0.10 | 96 | 1006.0 |
| 20260509110004 | 56 | 171 | 0.0 | 2.0 | 0.00 | 0.10 | 0.10 | 95 | 1005.9 |
| 20260509105504 | 56 | 171 | 1.0 | 3.0 | 0.00 | 0.10 | 0.10 | 95 | 1005.9 |
| 20260509104504 | 56 | 171 | 1.0 | 2.0 | 0.00 | 0.10 | 0.10 | 95 | 1005.7 |
| 20260509104004 | 56 | 171 | 2.0 | 5.0 | 0.00 | 0.10 | 0.10 | 95 | 1005.6 |
| 20260509103504 | 56 | 144 | 1.0 | 3.0 | 0.00 | 0.10 | 0.10 | 95 | 1005.5 |
| 20260509103004 | 56 | 144 | 0.0 | 2.0 | 0.00 | 0.10 | 0.10 | 95 | 1005.6 |
| 20260509102505 | 56 | 144 | 0.0 | 2.0 | 0.00 | 0.10 | 0.10 | 95 | 1005.6 |
| 20260509102005 | 56 | 144 | 1.0 | 3.0 | 0.00 | 0.10 | 0.10 | 95 | 1005.4 |
| 20260509101504 | 56 | 123 | 0.0 | 1.0 | 0.00 | 0.10 | 0.10 | 95 | 1005.4 |
| 20260509100505 | 56 | 121 | 0.0 | 1.0 | 0.00 | 0.10 | 0.10 | 95 | 1005.3 |
| 20260509100005 | 56 | 121 | 1.0 | 3.0 | 0.00 | 0.10 | 0.10 | 95 | 1005.3 |
| 20260509095504 | 56 | 126 | 0.0 | 2.0 | 0.00 | 0.10 | 0.10 | 95 | 1005.4 |
| 20260509095004 | 56 | 126 | 1.0 | 3.0 | 0.00 | 0.10 | 0.10 | 95 | 1005.3 |
| 20260509094005 | 56 | 150 | 0.0 | 3.0 | 0.00 | 0.10 | 0.10 | 95 | 1005.2 |
| 20260509093504 | 56 | 57 | 1.0 | 3.0 | 0.00 | 0.10 | 0.10 | 95 | 1005.3 |
| 20260509093004 | 57 | 163 | 0.0 | 3.0 | 0.00 | 0.10 | 0.10 | 95 | 1005.3 |
| 20260509092004 | 56 | 113 | 1.0 | 3.0 | 0.00 | 0.10 | 0.10 | 95 | 1005.4 |
| 20260509091504 | 57 | 153 | 1.0 | 3.0 | 0.01 | 0.10 | 0.10 | 95 | 1005.5 |
| 20260509091005 | 57 | 98 | 0.0 | 1.0 | 0.01 | 0.10 | 0.10 | 95 | 1005.6 |
| 20260509090004 | 57 | 98 | 0.0 | 3.0 | 0.03 | 0.10 | 0.10 | 95 | 1005.7 |
| 20260509085504 | 57 | 90 | 0.0 | 1.0 | 0.03 | 0.10 | 0.10 | 95 | 1005.7 |
| 20260509085004 | 57 | 90 | 0.0 | 2.0 | 0.04 | 0.10 | 0.10 | 95 | 1005.6 |
| 20260509084504 | 57 | 90 | 2.0 | 3.0 | 0.04 | 0.10 | 0.10 | 95 | 1005.8 |
| 20260509084004 | 57 | 88 | 2.0 | 3.0 | 0.04 | 0.10 | 0.10 | 95 | 1005.7 |
| 20260509083005 | 57 | 70 | 2.0 | 3.0 | 0.05 | 0.10 | 0.10 | 95 | 1005.9 |
| 20260509082504 | 57 | 54 | 3.0 | 6.0 | 0.07 | 0.10 | 0.10 | 95 | 1006.1 |
| 20260509082005 | 57 | 336 | 2.0 | 3.0 | 0.09 | 0.10 | 0.10 | 95 | 1006.7 |
| 20260509081504 | 57 | 300 | 1.0 | 2.0 | 0.08 | 0.09 | 0.09 | 95 | 1006.7 |
| 20260509081005 | 57 | 300 | 1.0 | 2.0 | 0.08 | 0.09 | 0.09 | 94 | 1006.6 |
| 20260509080005 | 57 | 50 | 2.0 | 5.0 | 0.06 | 0.07 | 0.07 | 94 | 1006.5 |
| 20260509075505 | 57 | 128 | 1.0 | 3.0 | 0.06 | 0.07 | 0.07 | 94 | 1006.7 |
| 20260509075004 | 57 | 137 | 0.0 | 3.0 | 0.05 | 0.06 | 0.06 | 94 | 1006.7 |
| 20260509074504 | 57 | 94 | 1.0 | 3.0 | 0.05 | 0.06 | 0.06 | 94 | 1006.5 |
| 20260509074004 | 57 | 88 | 3.0 | 7.0 | 0.05 | 0.06 | 0.06 | 94 | 1006.4 |
| 20260509073504 | 57 | 3 | 3.0 | 6.0 | 0.05 | 0.06 | 0.06 | 94 | 1006.5 |
| 20260509072505 | 57 | 317 | 0.0 | 3.0 | 0.02 | 0.03 | 0.03 | 94 | 1007.3 |
| 20260509072004 | 57 | 32 | 0.0 | 3.0 | 0.00 | 0.01 | 0.01 | 94 | 1006.9 |
| 20260509071504 | 57 | 52 | 1.0 | 2.0 | 0.00 | 0.01 | 0.01 | 94 | 1006.9 |
| 20260509071004 | 57 | 52 | 1.0 | 3.0 | 0.00 | 0.01 | 0.01 | 94 | 1006.9 |
| 20260509070505 | 57 | 53 | 1.0 | 3.0 | 0.01 | 0.01 | 0.01 | 94 | 1006.7 |
| 20260509070004 | 57 | 53 | 2.0 | 8.0 | 0.01 | 0.01 | 0.01 | 94 | 1006.6 |
| 20260509065504 | 57 | 63 | 2.0 | 5.0 | 0.01 | 0.01 | 0.01 | 94 | 1006.8 |
| 20260509065004 | 58 | 47 | 1.0 | 3.0 | 0.01 | 0.01 | 0.01 | 94 | 1007.0 |
| 20260509064505 | 58 | 46 | 1.0 | 3.0 | 0.01 | 0.01 | 0.01 | 94 | 1007.1 |
| 20260509064005 | 58 | 46 | 2.0 | 3.0 | 0.01 | 0.01 | 0.01 | 94 | 1007.2 |
| 20260509063004 | 58 | 19 | 1.0 | 3.0 | 0.01 | 0.01 | 0.01 | 94 | 1007.1 |
| 20260509062504 | 58 | 8 | 1.0 | 3.0 | 0.01 | 0.01 | 0.01 | 94 | 1007.2 |
| 20260509062004 | 58 | 8 | 1.0 | 3.0 | 0.01 | 0.01 | 0.01 | 93 | 1007.2 |
| 20260509061504 | 58 | 48 | 2.0 | 3.0 | 0.01 | 0.01 | 0.01 | 93 | 1007.2 |
| 20260509061005 | 58 | 49 | 1.0 | 3.0 | 0.01 | 0.01 | 0.01 | 93 | 1007.3 |
| 20260509060505 | 58 | 47 | 2.0 | 3.0 | 0.00 | 0.00 | 0.00 | 93 | 1007.3 |
| 20260509060005 | 58 | 28 | 2.0 | 5.0 | 0.00 | 0.00 | 0.00 | 93 | 1007.5 |
| 20260509055504 | 58 | 5 | 2.0 | 5.0 | 0.00 | 0.00 | 0.00 | 93 | 1007.5 |
| 20260509055005 | 58 | 15 | 2.0 | 6.0 | 0.00 | 0.00 | 0.00 | 93 | 1007.5 |
| 20260509054504 | 58 | 39 | 1.0 | 3.0 | 0.00 | 0.00 | 0.00 | 93 | 1007.5 |
| 20260509054005 | 58 | 31 | 1.0 | 3.0 | 0.00 | 0.00 | 0.00 | 93 | 1007.5 |
| 20260509053504 | 58 | 30 | 1.0 | 5.0 | 0.00 | 0.00 | 0.00 | 93 | 1007.5 |
| 20260509053005 | 58 | 26 | 2.0 | 3.0 | 0.00 | 0.00 | 0.00 | 93 | 1007.3 |
| 20260509052504 | 58 | 37 | 2.0 | 7.0 | 0.00 | 0.00 | 0.00 | 93 | 1007.2 |
| 20260509052005 | 58 | 61 | 3.0 | 5.0 | 0.00 | 0.00 | 0.00 | 93 | 1007.1 |
| 20260509051504 | 58 | 60 | 2.0 | 5.0 | 0.00 | 0.00 | 0.00 | 93 | 1007.2 |
| 20260509051005 | 58 | 80 | 1.0 | 5.0 | 0.00 | 0.00 | 0.00 | 93 | 1007.2 |
| 20260509050504 | 58 | 75 | 3.0 | 7.0 | 0.00 | 0.00 | 0.00 | 93 | 1007.2 |
| 20260509050005 | 58 | 33 | 2.0 | 6.0 | 0.00 | 0.00 | 0.00 | 93 | 1007.2 |
| 20260509045505 | 58 | 53 | 2.0 | 5.0 | 0.00 | 0.00 | 0.00 | 93 | 1007.2 |
| 20260509044004 | 59 | 36 | 2.0 | 5.0 | 0.00 | 0.00 | 0.00 | 93 | 1007.2 |
| 20260509043504 | 59 | 60 | 2.0 | 7.0 | 0.00 | 0.00 | 0.00 | 93 | 1007.2 |
| 20260509043005 | 59 | 28 | 1.0 | 5.0 | 0.00 | 0.00 | 0.00 | 93 | 1007.3 |
| 20260509042504 | 59 | 333 | 2.0 | 5.0 | 0.00 | 0.00 | 0.00 | 93 | 1007.4 |
| 20260509042004 | 59 | 355 | 2.0 | 3.0 | 0.00 | 0.00 | 0.00 | 93 | 1007.2 |
| 20260509041505 | 59 | 11 | 2.0 | 5.0 | 0.00 | 0.00 | 0.00 | 93 | 1007.1 |
| 20260509040505 | 59 | 33 | 2.0 | 3.0 | 0.00 | 0.00 | 0.00 | 92 | 1007.0 |
| 20260509040006 | 59 | 42 | 1.0 | 2.0 | 0.00 | 0.00 | 0.00 | 92 | 1007.0 |
| 20260509035505 | 59 | 42 | 0.0 | 3.0 | 0.00 | 0.00 | 0.00 | 92 | 1007.2 |
| 20260509034506 | 59 | 55 | 0.0 | 3.0 | 0.00 | 0.00 | 0.00 | 92 | 1007.2 |
| 20260509033506 | 59 | 45 | 1.0 | 3.0 | 0.00 | 0.00 | 0.00 | 92 | 1007.2 |
| 20260509033006 | 59 | 30 | 2.0 | 3.0 | 0.00 | 0.00 | 0.00 | 91 | 1007.1 |
| 20260509032506 | 59 | 28 | 2.0 | 3.0 | 0.00 | 0.00 | 0.00 | 91 | 1007.2 |
| 20260509032005 | 59 | 23 | 1.0 | 3.0 | 0.00 | 0.00 | 0.00 | 91 | 1007.2 |
| 20260509031005 | 60 | 46 | 0.0 | 1.0 | 0.00 | 0.00 | 0.00 | 91 | 1007.0 |
| 20260509030505 | 60 | 47 | 0.0 | 2.0 | 0.00 | 0.00 | 0.00 | 91 | 1006.9 |
| 20260509030005 | 60 | 47 | 0.0 | 1.0 | 0.00 | 0.00 | 0.00 | 91 | 1007.0 |
| 20260509025505 | 60 | 47 | 1.0 | 2.0 | 0.00 | 0.00 | 0.00 | 91 | 1007.0 |
| 20260509025006 | 60 | 47 | 1.0 | 3.0 | 0.00 | 0.00 | 0.00 | 91 | 1007.1 |
| 20260509024505 | 60 | 47 | 1.0 | 3.0 | 0.00 | 0.00 | 0.00 | 90 | 1007.1 |
| 20260509024005 | 60 | 28 | 0.0 | 1.0 | 0.00 | 0.00 | 0.00 | 90 | 1007.1 |
| 20260509023505 | 60 | 28 | 0.0 | 2.0 | 0.00 | 0.00 | 0.00 | 90 | 1007.2 |
| 20260509023006 | 61 | 21 | 1.0 | 3.0 | 0.00 | 0.00 | 0.00 | 89 | 1007.2 |
| 20260509022506 | 61 | 5 | 0.0 | 5.0 | 0.00 | 0.00 | 0.00 | 89 | 1007.1 |
| 20260509022005 | 61 | 354 | 2.0 | 3.0 | 0.00 | 0.00 | 0.00 | 89 | 1007.2 |
| 20260509020006 | 62 | 317 | 3.0 | 5.0 | 0.00 | 0.00 | 0.00 | 86 | 1007.2 |
| 20260509015505 | 62 | 22 | 0.0 | 2.0 | 0.00 | 0.00 | 0.00 | 85 | 1007.1 |
| 20260509015006 | 62 | 22 | 0.0 | 1.0 | 0.00 | 0.00 | 0.00 | 84 | 1007.0 |
| 20260509014505 | 62 | 22 | 2.0 | 3.0 | 0.00 | 0.00 | 0.00 | 83 | 1006.9 |
| 20260509014006 | 63 | 23 | 1.0 | 3.0 | 0.00 | 0.00 | 0.00 | 82 | 1007.0 |
| 20260509013506 | 63 | 23 | 1.0 | 3.0 | 0.00 | 0.00 | 0.00 | 81 | 1007.0 |
| 20260509012006 | 64 | 306 | 2.0 | 3.0 | 0.00 | 0.00 | 0.00 | 77 | 1007.0 |
| 20260509011506 | 64 | 296 | 1.0 | 2.0 | 0.00 | 0.00 | 0.00 | 76 | 1006.8 |
| 20260509011005 | 65 | 296 | 0.0 | 1.0 | 0.00 | 0.00 | 0.00 | 75 | 1006.8 |
| 20260509010506 | 65 | 296 | 1.0 | 8.0 | 0.00 | 0.00 | 0.00 | 73 | 1006.8 |
| 20260509010005 | 66 | 359 | 4.0 | 8.0 | 0.00 | 0.00 | 0.00 | 72 | 1006.8 |
| 20260509005506 | 67 | 19 | 3.0 | 9.0 | 0.00 | 0.00 | 0.00 | 69 | 1006.8 |
| 20260509005005 | 68 | 14 | 5.0 | 15.0 | 0.00 | 0.00 | 0.00 | 66 | 1007.0 |
| 20260509004505 | 69 | 347 | 5.0 | 15.0 | 0.00 | 0.00 | 0.00 | 57 | 1006.6 |
| 20260509003506 | 69 | 186 | 3.0 | 6.0 | 0.00 | 0.00 | 0.00 | 56 | 1006.3 |
| 20260509003006 | 69 | 189 | 3.0 | 5.0 | 0.00 | 0.00 | 0.00 | 55 | 1006.4 |
| 20260509002505 | 69 | 194 | 5.0 | 8.0 | 0.00 | 0.00 | 0.00 | 55 | 1006.4 |
| 20260509002005 | 69 | 188 | 5.0 | 12.0 | 0.00 | 0.00 | 0.00 | 55 | 1006.3 |
| 20260509001506 | 69 | 196 | 5.0 | 12.0 | 0.00 | 0.00 | 0.00 | 55 | 1006.4 |
| 20260509001006 | 69 | 197 | 5.0 | 12.0 | 0.00 | 0.00 | 0.00 | 55 | 1006.3 |
| 20260509000505 | 70 | 204 | 6.0 | 14.0 | 0.00 | 0.00 | 0.00 | 55 | 1006.4 |
| 20260509000005 | 70 | 183 | 4.0 | 10.0 | 0.00 | 0.00 | 0.00 | 55 | 1006.4 |
| 20260508235505 | 70 | 187 | 6.0 | 12.0 | 0.00 | 0.00 | 0.00 | 55 | 1006.5 |
| 20260508234005 | 70 | 190 | 6.0 | 9.0 | 0.00 | 0.00 | 0.00 | 54 | 1006.4 |
| 20260508233505 | 70 | 191 | 6.0 | 10.0 | 0.00 | 0.00 | 0.00 | 53 | 1006.4 |
| 20260508233006 | 71 | 194 | 6.0 | 10.0 | 0.00 | 0.00 | 0.00 | 54 | 1006.4 |
| 20260508232505 | 71 | 195 | 9.0 | 14.0 | 0.00 | 0.00 | 0.00 | 53 | 1006.4 |
| 20260508232005 | 71 | 193 | 6.0 | 12.0 | 0.00 | 0.00 | 0.00 | 53 | 1006.5 |
| 20260508231005 | 71 | 200 | 6.0 | 14.0 | 0.00 | 0.00 | 0.00 | 53 | 1006.8 |
| 20260508230505 | 71 | 214 | 8.0 | 14.0 | 0.00 | 0.00 | 0.00 | 52 | 1006.8 |
| 20260508230006 | 71 | 202 | 9.0 | 14.0 | 0.00 | 0.00 | 0.00 | 51 | 1006.9 |
| 20260508225005 | 72 | 210 | 7.0 | 14.0 | 0.00 | 0.00 | 0.00 | 52 | 1006.8 |
| 20260508223505 | 73 | 212 | 8.0 | 13.0 | 0.00 | 0.00 | 0.00 | 51 | 1006.8 |
| 20260508223006 | 73 | 203 | 7.0 | 15.0 | 0.00 | 0.00 | 0.00 | 50 | 1006.9 |
| 20260508222505 | 73 | 201 | 7.0 | 14.0 | 0.00 | 0.00 | 0.00 | 51 | 1006.9 |
| 20260508222005 | 73 | 217 | 7.0 | 17.0 | 0.00 | 0.00 | 0.00 | 49 | 1006.9 |
| 20260508221505 | 74 | 198 | 8.0 | 15.0 | 0.00 | 0.00 | 0.00 | 49 | 1006.8 |
| 20260508220505 | 73 | 217 | 6.0 | 12.0 | 0.00 | 0.00 | 0.00 | 51 | 1007.0 |
| 20260508220005 | 73 | 201 | 7.0 | 15.0 | 0.00 | 0.00 | 0.00 | 49 | 1006.9 |
| 20260508215505 | 73 | 207 | 6.0 | 12.0 | 0.00 | 0.00 | 0.00 | 50 | 1006.9 |
| 20260508215006 | 73 | 190 | 5.0 | 13.0 | 0.00 | 0.00 | 0.00 | 51 | 1007.0 |
| 20260508214505 | 73 | 215 | 9.0 | 15.0 | 0.00 | 0.00 | 0.00 | 50 | 1007.0 |
| 20260508214006 | 72 | 190 | 7.0 | 15.0 | 0.00 | 0.00 | 0.00 | 52 | 1007.0 |
| 20260508213006 | 71 | 187 | 7.0 | 13.0 | 0.00 | 0.00 | 0.00 | 52 | 1007.1 |
| 20260508212505 | 70 | 191 | 6.0 | 12.0 | 0.00 | 0.00 | 0.00 | 53 | 1007.2 |
| 20260508212005 | 70 | 211 | 5.0 | 10.0 | 0.00 | 0.00 | 0.00 | 52 | 1007.3 |
| 20260508211505 | 70 | 209 | 9.0 | 15.0 | 0.00 | 0.00 | 0.00 | 51 | 1007.4 |
| 20260508210505 | 71 | 225 | 8.0 | 14.0 | 0.00 | 0.00 | 0.00 | 51 | 1007.3 |
| 20260508210005 | 72 | 218 | 11.0 | 18.0 | 0.00 | 0.00 | 0.00 | 51 | 1007.4 |
| 20260508205505 | 72 | 219 | 10.0 | 17.0 | 0.00 | 0.00 | 0.00 | 50 | 1007.4 |
| 20260508204506 | 71 | 222 | 10.0 | 14.0 | 0.00 | 0.00 | 0.00 | 51 | 1007.5 |
| 20260508204006 | 71 | 210 | 9.0 | 17.0 | 0.00 | 0.00 | 0.00 | 52 | 1007.5 |
| 20260508203505 | 71 | 217 | 7.0 | 14.0 | 0.00 | 0.00 | 0.00 | 52 | 1007.6 |
| 20260508203006 | 71 | 222 | 10.0 | 20.0 | 0.00 | 0.00 | 0.00 | 51 | 1007.6 |
| 20260508202505 | 70 | 220 | 9.0 | 13.0 | 0.00 | 0.00 | 0.00 | 52 | 1007.8 |
| 20260508202005 | 70 | 217 | 10.0 | 18.0 | 0.00 | 0.00 | 0.00 | 52 | 1007.9 |
| 20260508201505 | 70 | 211 | 8.0 | 14.0 | 0.00 | 0.00 | 0.00 | 53 | 1008.0 |
| 20260508200505 | 70 | 213 | 7.0 | 18.0 | 0.00 | 0.00 | 0.00 | 52 | 1008.2 |
| 20260508200005 | 71 | 201 | 11.0 | 17.0 | 0.00 | 0.00 | 0.00 | 50 | 1008.2 |
| 20260508195505 | 71 | 208 | 8.0 | 21.0 | 0.00 | 0.00 | 0.00 | 51 | 1008.1 |
| 20260508195005 | 72 | 192 | 11.0 | 16.0 | 0.00 | 0.00 | 0.00 | 50 | 1008.3 |
| 20260508194505 | 72 | 201 | 9.0 | 17.0 | 0.00 | 0.00 | 0.00 | 50 | 1008.3 |
| 20260508194005 | 72 | 202 | 9.0 | 20.0 | 0.00 | 0.00 | 0.00 | 49 | 1008.4 |
| 20260508193505 | 72 | 212 | 12.0 | 18.0 | 0.00 | 0.00 | 0.00 | 50 | 1008.5 |
| 20260508193005 | 72 | 215 | 9.0 | 15.0 | 0.00 | 0.00 | 0.00 | 50 | 1008.4 |
| 20260508192506 | 71 | 201 | 10.0 | 18.0 | 0.00 | 0.00 | 0.00 | 50 | 1008.5 |
| 20260508191505 | 72 | 205 | 11.0 | 18.0 | 0.00 | 0.00 | 0.00 | 49 | 1008.6 |
| 20260508191005 | 72 | 192 | 12.0 | 20.0 | 0.00 | 0.00 | 0.00 | 49 | 1008.7 |
| 20260508190506 | 72 | 215 | 9.0 | 17.0 | 0.00 | 0.00 | 0.00 | 49 | 1008.7 |
| 20260508190005 | 72 | 193 | 11.0 | 21.0 | 0.00 | 0.00 | 0.00 | 48 | 1008.8 |
| 20260508185505 | 73 | 197 | 12.0 | 20.0 | 0.00 | 0.00 | 0.00 | 48 | 1008.8 |
| 20260508185005 | 73 | 187 | 7.0 | 17.0 | 0.00 | 0.00 | 0.00 | 49 | 1009.0 |
| 20260508184506 | 73 | 202 | 9.0 | 18.0 | 0.00 | 0.00 | 0.00 | 49 | 1009.2 |
| 20260508184005 | 73 | 227 | 10.0 | 23.0 | 0.00 | 0.00 | 0.00 | 48 | 1009.2 |
| 20260508183505 | 73 | 212 | 10.0 | 18.0 | 0.00 | 0.00 | 0.00 | 48 | 1009.3 |
| 20260508182505 | 72 | 211 | 13.0 | 22.0 | 0.00 | 0.00 | 0.00 | 47 | 1009.6 |
| 20260508181505 | 72 | 218 | 9.0 | 20.0 | 0.00 | 0.00 | 0.00 | 50 | 1009.6 |
| 20260508181005 | 72 | 205 | 12.0 | 16.0 | 0.00 | 0.00 | 0.00 | 49 | 1009.7 |
| 20260508180505 | 72 | 201 | 10.0 | 15.0 | 0.00 | 0.00 | 0.00 | 50 | 1009.8 |
| 20260508180005 | 71 | 232 | 10.0 | 17.0 | 0.00 | 0.00 | 0.00 | 49 | 1009.9 |
| 20260508175505 | 71 | 198 | 10.0 | 16.0 | 0.00 | 0.00 | 0.00 | 50 | 1009.8 |
| 20260508175005 | 71 | 185 | 10.0 | 20.0 | 0.00 | 0.00 | 0.00 | 50 | 1010.0 |
| 20260508174505 | 71 | 200 | 10.0 | 18.0 | 0.00 | 0.00 | 0.00 | 49 | 1010.1 |
| 20260508174005 | 71 | 209 | 11.0 | 20.0 | 0.00 | 0.00 | 0.00 | 51 | 1010.1 |
| 20260508173505 | 70 | 225 | 9.0 | 20.0 | 0.00 | 0.00 | 0.00 | 49 | 1010.3 |
| 20260508173005 | 71 | 212 | 12.0 | 20.0 | 0.00 | 0.00 | 0.00 | 49 | 1010.5 |
| 20260508171505 | 70 | 196 | 12.0 | 21.0 | 0.00 | 0.00 | 0.00 | 51 | 1010.7 |
| 20260508171005 | 70 | 216 | 10.0 | 17.0 | 0.00 | 0.00 | 0.00 | 50 | 1010.7 |
| 20260508170505 | 70 | 197 | 12.0 | 21.0 | 0.00 | 0.00 | 0.00 | 50 | 1010.7 |
| 20260508170005 | 70 | 190 | 10.0 | 18.0 | 0.00 | 0.00 | 0.00 | 51 | 1010.7 |
| 20260508165505 | 70 | 216 | 9.0 | 16.0 | 0.00 | 0.00 | 0.00 | 52 | 1010.7 |
| 20260508165005 | 70 | 190 | 12.0 | 21.0 | 0.00 | 0.00 | 0.00 | 51 | 1010.7 |
| 20260508164005 | 69 | 219 | 8.0 | 13.0 | 0.00 | 0.00 | 0.00 | 54 | 1010.7 |
| 20260508163505 | 69 | 223 | 11.0 | 18.0 | 0.00 | 0.00 | 0.00 | 52 | 1010.7 |
| 20260508163005 | 69 | 209 | 10.0 | 17.0 | 0.00 | 0.00 | 0.00 | 52 | 1010.9 |
| 20260508162504 | 69 | 200 | 12.0 | 16.0 | 0.00 | 0.00 | 0.00 | 51 | 1011.0 |